createdAt,value
2019-04-27T15:28:07.496Z,45.40
2019-04-27T15:30:42.419Z,47.20
2019-04-27T15:33:29.000Z,46.70
2019-04-27T15:35:59.918Z,46.30
2019-04-27T15:38:33.450Z,46.80
2019-04-27T15:41:24.360Z,47.60
2019-04-27T15:43:53.522Z,47.20
2019-04-27T15:46:22.693Z,47.00
2019-04-27T15:48:54.182Z,47.80
2019-04-27T15:51:22.736Z,48.30
2019-04-27T15:53:53.932Z,49.00
2019-04-27T15:56:22.872Z,48.90
2019-04-27T15:58:55.682Z,48.20
2019-04-27T16:01:23.114Z,48.70
2019-04-27T16:03:52.452Z,49.10
2019-04-27T16:06:22.054Z,49.70
2019-04-27T16:08:51.359Z,50.20
2019-04-27T16:11:22.046Z,51.00
2019-04-27T16:13:53.301Z,51.10
2019-04-27T16:16:29.135Z,51.20
2019-04-27T16:18:59.414Z,51.50
2019-04-27T16:21:31.533Z,51.50
2019-04-27T16:24:00.061Z,50.90
2019-04-27T16:26:29.263Z,49.90
2019-04-27T16:28:58.428Z,49.90
2019-04-27T16:31:32.807Z,50.30
2019-04-27T16:34:02.854Z,50.30
2019-04-27T16:36:32.287Z,50.80
2019-04-27T16:39:08.466Z,50.90
2019-04-27T16:41:37.357Z,51.00
2019-04-27T16:44:10.702Z,50.70
2019-04-27T16:46:42.616Z,50.20
2019-04-27T16:49:13.855Z,49.60
2019-04-27T16:51:40.429Z,49.90
2019-04-27T16:54:11.182Z,49.60
2019-04-27T16:56:40.710Z,50.00
2019-04-27T16:59:35.486Z,50.30
2019-04-27T17:01:46.269Z,51.10
2019-04-27T17:04:14.994Z,51.90
2019-04-27T17:06:45.993Z,52.20
2019-04-27T17:09:13.465Z,52.80
2019-04-27T17:11:43.852Z,53.00
2019-04-27T17:14:22.597Z,53.40
2019-04-27T17:16:58.174Z,53.50
2019-04-27T17:19:30.725Z,53.70
2019-04-27T17:22:00.242Z,54.30
2019-04-27T17:24:41.631Z,53.70
2019-04-27T17:27:06.001Z,54.50
2019-04-27T17:29:38.542Z,53.50
2019-04-27T17:32:11.097Z,53.40
2019-04-27T17:34:40.269Z,53.80
2019-04-27T17:37:09.442Z,53.90
2019-04-27T17:39:39.753Z,54.00
2019-04-27T17:42:08.987Z,54.10
2019-04-27T17:44:39.375Z,53.80
2019-04-27T17:47:10.620Z,53.90
2019-04-27T17:49:39.665Z,54.80
2019-04-27T17:52:08.972Z,54.60
2019-04-27T17:54:40.879Z,58.30
2019-04-27T17:57:13.376Z,62.20
2019-04-27T17:59:41.070Z,64.10
2019-04-27T18:02:10.731Z,65.00
2019-04-27T18:04:40.997Z,66.20
2019-04-27T18:07:10.530Z,67.60
2019-04-27T18:09:43.326Z,66.80
2019-04-27T18:12:14.847Z,65.90
2019-04-27T18:14:42.520Z,67.30
2019-04-27T18:17:12.245Z,68.70
2019-04-27T18:19:46.194Z,69.20
2019-04-27T18:22:17.880Z,69.60
2019-04-27T18:24:48.927Z,72.40
2019-04-27T18:27:37.695Z,77.60
2019-04-27T18:30:15.633Z,79.50
2019-04-27T18:32:44.946Z,81.60
2019-04-27T18:35:14.182Z,83.10
2019-04-27T18:37:43.387Z,83.90
2019-04-27T18:40:12.622Z,85.20
2019-04-27T18:42:41.834Z,84.70
2019-04-27T18:45:11.139Z,85.80
2019-04-27T18:47:41.966Z,86.70
2019-04-27T18:50:15.718Z,83.90
2019-04-27T18:52:58.176Z,83.50
2019-04-27T18:55:28.946Z,84.80
2019-04-27T18:57:59.636Z,83.90
2019-04-27T19:00:29.544Z,85.90
2019-04-27T19:02:58.895Z,84.30
2019-04-27T19:05:39.692Z,84.20
2019-04-27T19:07:59.174Z,84.40
2019-04-27T19:10:28.409Z,86.20
2019-04-27T19:12:58.522Z,85.60
2019-04-27T19:15:28.579Z,86.90
2019-04-27T19:17:58.247Z,86.40
2019-04-27T19:20:28.784Z,87.70
2019-04-27T19:22:59.829Z,87.30
2019-04-27T19:25:33.574Z,87.80
2019-04-27T19:28:18.589Z,87.50
2019-04-27T19:31:04.266Z,88.20
2019-04-27T19:33:33.495Z,88.60
2019-04-27T19:36:03.711Z,87.50
2019-04-27T19:38:32.885Z,87.60
2019-04-27T19:41:02.073Z,88.10
2019-04-27T19:43:31.315Z,87.40
2019-04-27T19:46:00.464Z,89.40
2019-04-27T19:48:29.660Z,89.00
2019-04-27T19:51:00.176Z,88.30
2019-04-27T19:53:29.614Z,88.70
2019-04-27T19:56:01.565Z,88.80
2019-04-27T19:58:33.337Z,90.10
2019-04-27T20:01:11.866Z,88.40
2019-04-27T20:03:39.355Z,89.40
2019-04-27T20:06:08.575Z,87.30
2019-04-27T20:08:48.970Z,88.10
2019-04-27T20:11:18.283Z,87.40
2019-04-27T20:13:47.455Z,87.90
2019-04-27T20:16:16.595Z,87.50
2019-04-27T20:18:45.745Z,85.90
2019-04-27T20:21:14.979Z,85.90
2019-04-27T20:23:44.232Z,85.10
2019-04-27T20:26:13.440Z,85.80
2019-04-27T20:28:42.739Z,85.00
2019-04-27T20:31:11.884Z,84.00
2019-04-27T20:33:41.634Z,83.60
2019-04-27T20:36:11.270Z,83.80
2019-04-27T20:38:41.815Z,82.90
2019-04-27T20:41:11.613Z,82.70
2019-04-27T20:43:42.079Z,82.80
2019-04-27T20:46:22.785Z,83.30
2019-04-27T20:48:53.120Z,83.70
2019-04-27T20:51:24.457Z,83.70
2019-04-27T20:53:55.321Z,83.60
2019-04-27T20:56:24.460Z,84.20
2019-04-27T20:58:53.615Z,83.30
2019-04-27T21:01:22.766Z,84.00
2019-04-27T21:03:53.649Z,84.40
2019-04-27T21:06:30.424Z,84.00
2019-04-27T21:09:00.864Z,83.90
2019-04-27T21:11:33.719Z,84.30
2019-04-27T21:14:02.930Z,85.50
2019-04-27T21:16:32.103Z,85.10
2019-04-27T21:19:02.613Z,85.80
2019-04-27T21:21:32.196Z,85.80
2019-04-27T21:24:01.335Z,85.90
2019-04-27T21:26:32.233Z,85.40
2019-04-27T21:29:01.591Z,86.50
2019-04-27T21:31:31.657Z,85.80
2019-04-27T21:34:00.971Z,85.80
2019-04-27T21:36:30.991Z,85.70
2019-04-27T21:39:01.466Z,85.10
2019-04-27T21:41:32.410Z,85.10
2019-04-27T21:44:01.554Z,85.00
2019-04-27T21:46:31.639Z,85.00
2019-04-27T21:49:01.636Z,85.80
2019-04-27T21:51:33.822Z,85.80
2019-04-27T21:54:05.822Z,85.30
2019-04-27T21:56:34.986Z,85.70
2019-04-27T21:59:04.127Z,85.80
2019-04-27T22:01:33.747Z,85.80
2019-04-27T22:04:04.897Z,85.50
2019-04-27T22:06:34.235Z,84.80
2019-04-27T22:09:05.487Z,84.40
2019-04-27T22:11:35.117Z,84.40
2019-04-27T22:14:05.972Z,84.70
2019-04-27T22:16:35.143Z,84.80
2019-04-27T22:19:04.275Z,84.50
2019-04-27T22:21:33.432Z,85.00
2019-04-27T22:24:04.291Z,84.80
2019-04-27T22:26:33.446Z,84.80
2019-04-27T22:29:02.680Z,86.00
2019-04-27T22:31:31.910Z,86.00
2019-04-27T22:34:01.854Z,86.00
2019-04-27T22:36:31.205Z,87.10
2019-04-27T22:39:01.987Z,87.10
2019-04-27T22:41:34.386Z,88.80
2019-04-27T22:44:07.884Z,88.10
2019-04-27T22:46:38.674Z,87.60
2019-04-27T22:49:07.891Z,88.70
2019-04-27T22:51:37.107Z,89.00
2019-04-27T22:54:06.263Z,89.80
2019-04-27T22:56:35.569Z,88.00
2019-04-27T22:59:06.389Z,87.90
2019-04-27T23:01:40.665Z,87.60
2019-04-27T23:04:12.786Z,87.40
2019-04-27T23:06:41.962Z,86.00
2019-04-27T23:09:11.792Z,86.20
2019-04-27T23:11:41.550Z,85.90
2019-04-27T23:14:11.147Z,86.70
2019-04-27T23:16:43.168Z,85.30
2019-04-27T23:19:12.364Z,86.10
2019-04-27T23:21:41.516Z,85.40
2019-04-27T23:24:10.672Z,85.80
2019-04-27T23:26:39.814Z,85.20
2019-04-27T23:29:13.708Z,84.50
2019-04-27T23:31:41.526Z,84.40
2019-04-27T23:34:11.748Z,84.50
2019-04-27T23:36:42.350Z,85.10
2019-04-27T23:39:11.953Z,85.70
2019-04-27T23:41:41.231Z,85.80
2019-04-27T23:44:10.414Z,86.40
2019-04-27T23:46:39.904Z,86.60
2019-04-27T23:49:09.143Z,86.50
2019-04-27T23:51:40.008Z,85.10
2019-04-27T23:54:09.270Z,84.80
2019-04-27T23:56:38.480Z,84.70
2019-04-27T23:59:07.692Z,84.60
